Time;durP1;ratioP1;P1;durP2;ratioP2;P2;SDS_P1;SDS_P2;PMS_P1;PMS_P2;Temp;Humidity;BMP_temperature;BMP_pressure;BME280_temperature;BME280_humidity;BME280_pressure;Samples;Min_cycle;Max_cycle;Signal;HPM_P1;HPM_P2
2023/03/03 00:00:37;;;;;;;4.55;4.25;;;;;;;5.25;85.55;95098.31;5030107;28;20761;-64
2023/03/03 00:03:07;;;;;;;4.03;3.63;;;;;;;5.31;85.04;95103.28;5026230;28;20208;-63
2023/03/03 00:05:35;;;;;;;4.70;4.38;;;;;;;5.18;86.13;95095.91;5029110;28;20206;-65
2023/03/03 00:08:03;;;;;;;3.78;3.50;;;;;;;5.13;86.64;95108.53;5029705;28;20211;-63
2023/03/03 00:10:30;;;;;;;3.78;3.47;;;;;;;5.08;86.35;95092.66;5029141;28;20920;-66
2023/03/03 00:12:57;;;;;;;3.97;3.67;;;;;;;5.15;86.03;95088.38;5024138;28;20712;-61
2023/03/03 00:15:25;;;;;;;4.00;3.75;;;;;;;5.12;86.59;95091.75;5014371;28;20210;-63
2023/03/03 00:17:53;;;;;;;5.05;4.65;;;;;;;5.11;86.77;95093.44;5026942;28;20205;-61
2023/03/03 00:20:30;;;;;;;4.18;3.83;;;;;;;5.00;86.66;95081.81;5025799;28;20692;-61
2023/03/03 00:23:05;;;;;;;3.83;3.53;;;;;;;5.02;87.44;95090.19;5028379;28;20684;-65
2023/03/03 00:25:34;;;;;;;4.13;3.80;;;;;;;5.01;87.13;95091.03;5026359;28;21123;-64
2023/03/03 00:28:07;;;;;;;4.68;4.38;;;;;;;4.95;88.03;95083.59;5027993;28;20656;-62
2023/03/03 00:30:34;;;;;;;6.13;4.78;;;;;;;4.89;87.65;95089.50;5027980;28;20217;-63
2023/03/03 00:33:01;;;;;;;5.72;5.10;;;;;;;4.99;87.87;95078.47;5029462;28;20226;-61
2023/03/03 00:35:34;;;;;;;4.85;4.50;;;;;;;5.07;87.64;95078.38;5028261;28;20237;-61
2023/03/03 00:38:02;;;;;;;5.80;5.30;;;;;;;4.94;87.94;95077.72;5028935;28;20210;-62
2023/03/03 00:40:36;;;;;;;5.60;4.85;;;;;;;4.99;87.83;95070.06;5028217;28;20232;-65
2023/03/03 00:43:15;;;;;;;5.53;5.03;;;;;;;5.01;87.69;95073.41;5028236;28;20229;-62
2023/03/03 00:45:45;;;;;;;5.30;4.90;;;;;;;5.03;87.58;95065.00;5029468;28;20230;-63
2023/03/03 00:48:22;;;;;;;5.15;4.75;;;;;;;4.95;88.50;95063.44;5027070;28;20526;-63
2023/03/03 00:50:49;;;;;;;4.88;4.35;;;;;;;5.06;88.29;95057.41;5023257;28;20235;-62
2023/03/03 00:53:18;;;;;;;10.75;4.57;;;;;;;4.93;88.42;95060.09;5019885;28;20218;-64
2023/03/03 00:55:48;;;;;;;5.50;5.10;;;;;;;4.89;88.81;95045.88;5020407;28;20214;-64
2023/03/03 00:58:15;;;;;;;5.03;4.72;;;;;;;4.87;88.84;95048.41;5020314;28;20209;-66
2023/03/03 01:00:42;;;;;;;5.75;5.25;;;;;;;4.85;89.06;95046.75;5021186;28;20198;-62
2023/03/03 01:03:14;;;;;;;5.75;5.35;;;;;;;4.86;89.01;95033.31;5021303;28;20232;-59
2023/03/03 01:05:41;;;;;;;5.30;4.90;;;;;;;4.79;89.31;95033.38;5022952;28;20299;-65
2023/03/03 01:08:08;;;;;;;5.15;4.68;;;;;;;4.87;89.24;95027.44;5021517;28;20446;-66
2023/03/03 01:10:38;;;;;;;5.72;5.15;;;;;;;4.78;89.70;95026.69;5019196;28;20207;-60
2023/03/03 01:13:08;;;;;;;5.47;5.05;;;;;;;4.75;90.09;95031.75;5022155;28;21602;-60
2023/03/03 01:15:35;;;;;;;5.15;4.75;;;;;;;4.91;89.52;95026.53;5019120;28;20242;-62
2023/03/03 01:18:02;;;;;;;5.90;5.40;;;;;;;4.99;89.12;95035.66;5014668;28;20207;-62
2023/03/03 01:20:29;;;;;;;5.75;5.25;;;;;;;5.20;87.58;95034.53;5018661;28;20296;-63
2023/03/03 01:22:55;;;;;;;5.75;5.25;;;;;;;5.07;88.32;95026.31;5020398;28;20203;-64
2023/03/03 01:25:22;;;;;;;5.57;5.10;;;;;;;5.11;88.25;95029.63;5017022;28;20203;-64
2023/03/03 01:27:50;;;;;;;5.75;5.25;;;;;;;5.05;88.57;95034.75;5019372;28;20688;-61
2023/03/03 01:30:18;;;;;;;5.28;4.78;;;;;;;4.98;88.32;95026.44;5022129;28;20411;-59
2023/03/03 01:32:46;;;;;;;4.85;4.45;;;;;;;4.84;89.49;95028.31;5021074;28;20195;-63
2023/03/03 01:35:13;;;;;;;6.30;5.88;;;;;;;4.78;89.32;95025.84;5019056;28;20234;-62
2023/03/03 01:37:40;;;;;;;5.07;4.68;;;;;;;4.90;88.66;95032.44;5018247;28;20388;-64
2023/03/03 01:40:13;;;;;;;5.72;5.22;;;;;;;4.86;89.05;95028.28;5020146;28;20227;-64
2023/03/03 01:42:39;;;;;;;6.15;5.55;;;;;;;4.75;88.95;95026.72;5019785;28;20214;-61
2023/03/03 01:45:20;;;;;;;7.00;6.28;;;;;;;4.92;89.21;95020.66;5019994;28;20213;-64
2023/03/03 01:47:53;;;;;;;8.00;5.78;;;;;;;4.93;89.02;95025.69;5019065;28;20692;-59
2023/03/03 01:50:31;;;;;;;6.55;5.93;;;;;;;4.87;88.93;95022.41;5023301;28;20226;-63
2023/03/03 01:53:00;;;;;;;7.25;5.68;;;;;;;4.91;88.74;95022.34;5021841;28;20963;-62
2023/03/03 01:55:32;;;;;;;5.70;5.20;;;;;;;4.85;88.87;95021.56;5023455;28;20237;-61
2023/03/03 01:58:02;;;;;;;5.88;5.38;;;;;;;4.90;88.68;95017.31;5021766;28;21016;-60
2023/03/03 02:00:31;;;;;;;8.40;6.35;;;;;;;4.84;89.03;95017.41;5020935;28;22184;-64
2023/03/03 02:02:58;;;;;;;6.45;5.78;;;;;;;4.73;89.17;95008.28;5015905;28;20195;-65
2023/03/03 02:05:25;;;;;;;5.90;5.38;;;;;;;4.91;88.57;95011.44;5018081;28;20207;-61
2023/03/03 02:07:52;;;;;;;7.70;5.55;;;;;;;4.82;88.62;95016.56;5018653;28;20425;-59
2023/03/03 02:10:21;;;;;;;6.28;5.68;;;;;;;4.86;89.15;95015.69;5019838;28;20210;-63
2023/03/03 02:12:50;;;;;;;4.88;4.55;;;;;;;4.87;89.24;95017.34;5020214;28;20269;-60
2023/03/03 02:15:19;;;;;;;5.13;4.30;;;;;;;4.77;88.78;95016.63;5012929;28;20218;-64
2023/03/03 02:17:49;;;;;;;5.78;4.80;;;;;;;4.87;88.85;95014.84;5020820;28;20219;-61
2023/03/03 02:20:25;;;;;;;5.28;4.88;;;;;;;4.86;88.60;95013.19;5016944;28;20255;-61
2023/03/03 02:22:58;;;;;;;4.82;4.38;;;;;;;4.85;88.70;95011.50;5020472;28;20687;-62
2023/03/03 02:25:34;;;;;;;4.80;4.38;;;;;;;4.96;87.94;95018.06;5021356;28;20211;-64
2023/03/03 02:28:03;;;;;;;4.97;4.50;;;;;;;4.90;88.18;95017.31;5020923;28;20687;-64
2023/03/03 02:30:29;;;;;;;9.13;4.85;;;;;;;4.99;87.24;95013.00;5020649;28;20290;-61
2023/03/03 02:32:56;;;;;;;3.42;3.13;;;;;;;5.02;87.36;95014.63;5019395;28;20371;-61
2023/03/03 02:35:29;;;;;;;3.83;3.53;;;;;;;4.98;87.10;95016.34;5024227;28;20276;-63
2023/03/03 02:38:02;;;;;;;4.40;4.10;;;;;;;4.86;86.87;95019.03;5019736;28;20229;-64
2023/03/03 02:40:33;;;;;;;4.30;4.00;;;;;;;4.81;87.54;95012.38;5020607;28;20233;-63
2023/03/03 02:43:05;;;;;;;4.85;4.45;;;;;;;4.79;87.41;95018.28;5018700;28;20213;-64
2023/03/03 02:45:32;;;;;;;5.40;4.60;;;;;;;4.91;87.14;95008.91;5023128;28;20211;-61
2023/03/03 02:47:58;;;;;;;6.03;5.47;;;;;;;4.91;87.09;95016.47;5020336;28;20233;-64
2023/03/03 02:50:25;;;;;;;4.72;4.35;;;;;;;4.83;87.32;95013.22;5017773;28;20237;-61
2023/03/03 02:52:52;;;;;;;5.70;5.30;;;;;;;4.81;87.80;95017.44;5016669;28;20201;-64
2023/03/03 02:55:18;;;;;;;6.93;5.95;;;;;;;4.78;87.97;95014.09;5018942;28;20714;-64
2023/03/03 02:57:45;;;;;;;5.35;4.95;;;;;;;4.77;88.07;95009.06;5019070;28;20221;-59
2023/03/03 03:00:14;;;;;;;6.15;5.15;;;;;;;4.88;87.91;95006.44;5022697;28;20680;-62
2023/03/03 03:02:41;;;;;;;5.90;5.50;;;;;;;4.93;87.06;95002.19;5020689;28;20207;-63
2023/03/03 03:05:08;;;;;;;6.50;6.00;;;;;;;4.90;87.84;95007.25;5027000;28;20266;-64
2023/03/03 03:07:35;;;;;;;7.20;6.60;;;;;;;4.84;87.26;95007.31;5017041;28;20207;-62
2023/03/03 03:10:01;;;;;;;6.65;6.15;;;;;;;4.85;87.97;95009.00;5021188;28;20628;-60
2023/03/03 03:12:28;;;;;;;6.72;6.22;;;;;;;4.75;88.14;95008.25;5016198;28;20215;-60
2023/03/03 03:14:55;;;;;;;6.75;6.18;;;;;;;4.83;87.89;95000.63;5022873;28;20229;-63
2023/03/03 03:17:23;;;;;;;6.65;6.03;;;;;;;4.84;87.96;95002.28;5017147;28;20244;-63
2023/03/03 03:19:50;;;;;;;7.10;6.50;;;;;;;4.70;88.30;95003.28;5023078;28;20199;-59
2023/03/03 03:22:18;;;;;;;7.38;6.38;;;;;;;4.77;88.49;94997.31;5016856;28;21288;-61
2023/03/03 03:24:45;;;;;;;6.70;6.05;;;;;;;4.92;88.33;95003.88;5021960;28;20808;-64
2023/03/03 03:27:11;;;;;;;6.18;5.65;;;;;;;4.88;88.18;95002.22;5017124;28;20265;-64
2023/03/03 03:29:38;;;;;;;6.40;5.78;;;;;;;4.87;88.40;95004.78;5022313;28;20256;-65
2023/03/03 03:32:05;;;;;;;9.68;6.70;;;;;;;4.87;88.27;94997.22;5028333;28;20583;-66
2023/03/03 03:34:33;;;;;;;6.90;5.88;;;;;;;4.95;88.73;95005.53;5022276;28;20231;-61
2023/03/03 03:37:00;;;;;;;7.50;6.90;;;;;;;4.85;89.27;94996.41;5023643;28;20268;-62
2023/03/03 03:39:27;;;;;;;6.93;6.32;;;;;;;4.83;89.66;94993.06;5024581;28;20207;-65
2023/03/03 03:41:54;;;;;;;7.40;6.70;;;;;;;4.77;89.31;94994.81;5022914;28;20290;-64
2023/03/03 03:44:21;;;;;;;8.45;6.43;;;;;;;4.69;89.89;94981.50;5022412;28;20191;-63
2023/03/03 03:46:47;;;;;;;6.88;6.22;;;;;;;4.64;90.00;94984.91;5019902;28;20203;-63
2023/03/03 03:49:14;;;;;;;11.25;7.00;;;;;;;4.64;89.90;94985.75;5021555;28;20587;-62
2023/03/03 03:51:42;;;;;;;7.95;6.75;;;;;;;4.89;89.94;94983.75;5025495;28;20261;-60
2023/03/03 03:54:09;;;;;;;7.53;6.88;;;;;;;4.88;89.78;94989.66;5022295;28;20708;-64
2023/03/03 03:56:35;;;;;;;7.18;6.53;;;;;;;4.87;89.54;94979.59;5024630;28;20201;-67
2023/03/03 03:59:02;;;;;;;9.32;7.25;;;;;;;4.76;89.87;94967.97;5022526;28;20200;-64
2023/03/03 04:01:29;;;;;;;7.72;7.03;;;;;;;4.98;90.13;94985.31;5026139;28;20616;-59
2023/03/03 04:03:56;;;;;;;7.18;6.57;;;;;;;4.98;89.90;94978.59;5021209;28;20293;-59
2023/03/03 04:06:22;;;;;;;8.57;7.63;;;;;;;4.89;90.30;94982.94;5022883;28;20207;-60
2023/03/03 04:08:50;;;;;;;10.25;8.93;;;;;;;4.93;90.42;94971.97;5023996;28;20214;-60
2023/03/03 04:11:17;;;;;;;7.47;6.70;;;;;;;4.98;90.17;94978.59;5024898;28;20203;-62
2023/03/03 04:13:44;;;;;;;9.80;8.30;;;;;;;5.02;90.00;94976.84;5023526;28;20668;-65
2023/03/03 04:16:10;;;;;;;10.90;8.93;;;;;;;4.93;90.16;94980.34;5022488;28;20215;-64
2023/03/03 04:18:37;;;;;;;10.18;8.00;;;;;;;4.93;90.71;94982.03;5023446;28;20228;-58
2023/03/03 04:21:04;;;;;;;11.30;7.90;;;;;;;4.94;90.16;94969.44;5022503;28;20589;-60
2023/03/03 04:23:31;;;;;;;9.15;7.35;;;;;;;5.01;90.19;94972.69;5021163;28;20303;-58
2023/03/03 04:25:59;;;;;;;8.68;7.78;;;;;;;5.07;89.78;94972.59;5017573;28;20220;-61
2023/03/03 04:28:26;;;;;;;9.30;7.70;;;;;;;4.98;89.82;94980.28;5023026;28;20198;-64
2023/03/03 04:30:53;;;;;;;8.73;7.85;;;;;;;4.83;90.64;94971.25;5021400;28;20707;-62
2023/03/03 04:33:20;;;;;;;9.32;8.02;;;;;;;4.93;90.63;94969.44;5020633;28;20295;-61
2023/03/03 04:35:46;;;;;;;9.35;8.43;;;;;;;4.90;90.86;94969.47;5023721;28;20222;-62
2023/03/03 04:38:13;;;;;;;8.98;8.13;;;;;;;4.95;89.81;94960.19;5023235;28;20229;-65
2023/03/03 04:40:40;;;;;;;9.57;8.10;;;;;;;5.04;90.25;94973.47;5022831;28;20855;-60
2023/03/03 04:43:10;;;;;;;11.20;7.45;;;;;;;4.95;90.29;94977.81;5025485;28;20199;-62
2023/03/03 04:45:37;;;;;;;8.43;7.63;;;;;;;4.95;91.32;94973.59;5018578;28;20210;-67
2023/03/03 04:48:04;;;;;;;10.18;8.43;;;;;;;4.94;90.54;94961.88;5019472;28;20240;-65
2023/03/03 04:50:31;;;;;;;11.98;9.02;;;;;;;4.93;90.93;94969.44;5026636;28;20589;-60
2023/03/03 04:52:58;;;;;;;11.45;8.52;;;;;;;5.00;90.72;94971.00;5027026;28;20228;-60
2023/03/03 04:55:24;;;;;;;13.82;9.20;;;;;;;4.87;90.85;94969.53;5027118;28;20218;-61
2023/03/03 04:57:51;;;;;;;11.48;9.10;;;;;;;4.83;91.19;94966.22;5026467;28;20264;-62
2023/03/03 05:00:20;;;;;;;11.23;9.38;;;;;;;4.98;90.93;94977.75;5027035;28;20259;-61
2023/03/03 05:02:48;;;;;;;12.27;9.95;;;;;;;5.08;90.84;94979.31;5027006;28;20215;-60
2023/03/03 05:05:15;;;;;;;11.48;9.23;;;;;;;5.05;90.86;94981.84;5026344;28;20679;-66
2023/03/03 05:07:42;;;;;;;10.65;8.45;;;;;;;5.09;90.39;94986.00;5025672;28;20201;-65
2023/03/03 05:10:10;;;;;;;11.23;9.82;;;;;;;4.98;90.52;94977.75;5029116;28;20197;-59
2023/03/03 05:12:36;;;;;;;11.40;9.35;;;;;;;4.89;91.15;94982.94;5029086;28;20208;-61
2023/03/03 05:15:04;;;;;;;12.93;10.18;;;;;;;5.00;91.35;94981.09;5026966;28;20214;-63
2023/03/03 05:17:32;;;;;;;13.98;10.23;;;;;;;5.10;90.75;94977.59;5028756;28;21026;-66
2023/03/03 05:19:59;;;;;;;13.35;10.02;;;;;;;5.10;90.44;94987.66;5026753;28;20642;-64
2023/03/03 05:22:26;;;;;;;15.98;9.65;;;;;;;5.01;91.21;94978.53;5028220;28;20267;-65
2023/03/03 05:24:52;;;;;;;16.90;11.85;;;;;;;5.06;91.46;94986.88;5026643;28;20203;-63
2023/03/03 05:27:20;;;;;;;12.38;10.52;;;;;;;5.20;90.86;94976.59;5026404;28;20576;-64
2023/03/03 05:29:46;;;;;;;15.68;11.25;;;;;;;5.22;90.82;94987.47;5027845;28;20203;-68
2023/03/03 05:32:13;;;;;;;15.40;11.02;;;;;;;5.21;90.39;94990.03;5028921;28;20268;-63
2023/03/03 05:34:41;;;;;;;12.23;10.52;;;;;;;5.36;89.86;94988.13;5028108;28;20245;-63
2023/03/03 05:37:08;;;;;;;14.10;10.82;;;;;;;5.21;90.70;94995.06;5026363;28;20209;-65
2023/03/03 05:39:35;;;;;;;15.75;10.82;;;;;;;4.95;90.85;94977.81;5027173;28;20226;-68
2023/03/03 05:42:02;;;;;;;14.93;11.40;;;;;;;4.92;91.59;94993.78;5027646;28;20210;-65
2023/03/03 05:44:29;;;;;;;14.07;11.30;;;;;;;4.72;92.01;94980.59;5028092;28;20217;-61
2023/03/03 05:46:57;;;;;;;16.45;10.75;;;;;;;4.73;92.39;94990.66;5027446;28;20759;-58
2023/03/03 05:49:24;;;;;;;17.98;11.65;;;;;;;4.81;92.17;94997.28;5027157;28;20203;-69
2023/03/03 05:51:53;;;;;;;15.27;9.90;;;;;;;4.91;91.46;94996.31;5027156;28;20198;-66
2023/03/03 05:54:20;;;;;;;16.85;10.73;;;;;;;4.90;92.16;95005.56;5027477;28;20214;-62
2023/03/03 05:56:46;;;;;;;11.90;9.63;;;;;;;4.86;91.89;94998.91;5025235;28;20883;-65
2023/03/03 05:59:14;;;;;;;14.25;10.65;;;;;;;4.85;92.17;95006.47;5029206;28;20209;-66
2023/03/03 06:01:40;;;;;;;15.05;11.82;;;;;;;4.78;91.83;94999.00;5027349;28;20285;-62
2023/03/03 06:04:07;;;;;;;13.70;10.90;;;;;;;4.87;92.15;94999.75;5026751;28;21426;-64
2023/03/03 06:06:35;;;;;;;15.43;11.45;;;;;;;4.87;91.92;95004.78;5025153;28;20417;-62
2023/03/03 06:09:04;;;;;;;11.98;9.93;;;;;;;5.01;91.24;95002.91;5026640;28;20206;-65
2023/03/03 06:11:30;;;;;;;13.52;10.90;;;;;;;5.04;91.48;95002.84;5026233;28;20222;-70
2023/03/03 06:13:57;;;;;;;12.82;10.48;;;;;;;5.10;91.71;94997.75;5025852;28;20856;-64
2023/03/03 06:16:24;;;;;;;12.25;9.90;;;;;;;5.10;90.13;95006.13;5026375;28;20754;-63
2023/03/03 06:18:50;;;;;;;13.88;10.43;;;;;;;5.08;90.74;94999.44;5026771;28;20214;-65
2023/03/03 06:21:17;;;;;;;14.57;11.30;;;;;;;5.16;90.91;95004.41;5027641;28;20266;-65
2023/03/03 06:23:44;;;;;;;12.90;10.75;;;;;;;5.19;90.28;95002.66;5026634;28;20206;-61
2023/03/03 06:26:12;;;;;;;13.60;10.80;;;;;;;5.39;90.23;95009.94;5026226;28;20205;-65
2023/03/03 06:28:39;;;;;;;11.18;9.95;;;;;;;5.30;89.57;95010.91;5025610;28;20482;-60
2023/03/03 06:31:05;;;;;;;11.45;8.65;;;;;;;5.11;89.47;95009.50;5027167;28;22177;-60
2023/03/03 06:33:32;;;;;;;12.77;8.77;;;;;;;5.14;90.00;95004.41;5026708;28;20213;-60
2023/03/03 06:35:59;;;;;;;14.13;10.18;;;;;;;5.17;90.14;95009.41;5026182;28;20226;-60
2023/03/03 06:38:25;;;;;;;11.27;9.63;;;;;;;5.20;90.53;95008.53;5027287;28;20202;-60
2023/03/03 06:40:52;;;;;;;15.48;9.38;;;;;;;5.32;89.15;95005.84;5026776;28;20238;-62
2023/03/03 06:43:20;;;;;;;11.73;9.73;;;;;;;5.29;90.00;95004.19;5027872;28;20304;-63
2023/03/03 06:45:47;;;;;;;12.00;9.85;;;;;;;5.34;89.29;95016.72;5026157;28;20206;-60
2023/03/03 06:48:14;;;;;;;12.80;9.98;;;;;;;5.40;90.19;95011.59;5024416;28;20206;-62
2023/03/03 06:50:41;;;;;;;11.77;9.65;;;;;;;5.68;89.46;95019.59;5026705;28;20295;-60
2023/03/03 06:53:11;;;;;;;11.80;9.82;;;;;;;5.79;88.56;95012.69;5027387;28;20213;-65
2023/03/03 06:55:38;;;;;;;13.00;10.43;;;;;;;5.76;89.11;95015.25;5027843;28;20303;-59
2023/03/03 06:58:12;;;;;;;10.57;9.48;;;;;;;5.82;88.62;95005.91;5025721;28;20712;-61
2023/03/03 07:00:42;;;;;;;12.77;10.85;;;;;;;5.79;88.72;95010.16;5025299;28;20291;-62
2023/03/03 07:03:14;;;;;;;10.85;9.50;;;;;;;5.82;88.35;95016.00;5027642;28;20206;-65
2023/03/03 07:05:41;;;;;;;12.98;9.32;;;;;;;5.93;88.37;95015.84;5025436;28;20242;-62
2023/03/03 07:08:13;;;;;;;12.98;10.70;;;;;;;5.93;88.52;95013.34;5026670;28;20764;-62
2023/03/03 07:10:40;;;;;;;10.50;9.50;;;;;;;5.94;87.48;95025.06;5026067;28;22346;-61
2023/03/03 07:13:18;;;;;;;11.35;9.43;;;;;;;6.11;87.35;95020.59;5027793;28;20209;-57
2023/03/03 07:15:47;;;;;;;13.52;9.95;;;;;;;6.00;86.51;95019.09;5025871;28;20226;-63
2023/03/03 07:18:31;;;;;;;10.75;8.73;;;;;;;6.07;87.34;95016.44;5027709;28;20854;-64
2023/03/03 07:20:58;;;;;;;15.75;9.95;;;;;;;6.21;87.01;95013.69;5025732;28;20763;-64
2023/03/03 07:23:27;;;;;;;13.48;9.98;;;;;;;6.26;86.82;95016.13;5026815;28;22104;-63
2023/03/03 07:25:54;;;;;;;10.68;9.07;;;;;;;6.21;86.59;95018.72;5028159;28;20198;-64
2023/03/03 07:28:24;;;;;;;9.10;8.20;;;;;;;5.97;85.79;95022.50;5024763;28;20210;-63
2023/03/03 07:30:53;;;;;;;13.48;9.10;;;;;;;5.87;85.77;95028.53;5025657;28;20213;-60
2023/03/03 07:33:26;;;;;;;9.27;8.27;;;;;;;5.89;85.86;95019.28;5025411;28;20210;-63
2023/03/03 07:35:54;;;;;;;9.50;8.27;;;;;;;5.84;85.85;95013.44;5026952;28;20226;-66
2023/03/03 07:38:29;;;;;;;10.05;9.00;;;;;;;6.02;86.63;95015.69;5025514;28;20206;-63
2023/03/03 07:40:58;;;;;;;9.00;8.20;;;;;;;6.05;86.29;95013.13;5026652;28;20595;-64
2023/03/03 07:43:39;;;;;;;11.13;8.07;;;;;;;6.08;85.94;95009.72;5025820;28;20199;-65
2023/03/03 07:46:26;;;;;;;10.13;9.13;;;;;;;6.21;86.38;95017.88;5024129;28;20207;-63
2023/03/03 07:48:54;;;;;;;10.57;9.48;;;;;;;6.21;86.17;95012.84;5025389;28;20230;-65
2023/03/03 07:51:24;;;;;;;11.23;9.57;;;;;;;6.34;85.05;95019.34;5019774;28;20245;-60
2023/03/03 07:53:52;;;;;;;11.57;9.18;;;;;;;6.39;84.12;95013.38;5020220;28;20211;-61
2023/03/03 07:56:28;;;;;;;10.15;8.82;;;;;;;6.47;85.32;95011.50;5014448;28;20222;-60
2023/03/03 07:58:56;;;;;;;12.80;9.90;;;;;;;6.27;84.41;95011.06;5021877;28;20217;-64
2023/03/03 08:01:38;;;;;;;13.02;10.40;;;;;;;6.40;85.41;95006.63;5022380;28;20206;-60
2023/03/03 08:04:16;;;;;;;11.00;9.30;;;;;;;6.59;84.88;95007.94;5020604;28;20210;-66
2023/03/03 08:06:48;;;;;;;14.10;9.95;;;;;;;6.58;84.13;95002.91;5020069;28;20202;-62
2023/03/03 08:09:40;;;;;;;11.10;9.75;;;;;;;6.51;84.11;95001.38;5016192;28;20201;-62
2023/03/03 08:12:20;;;;;;;13.27;10.50;;;;;;;6.51;84.32;94997.16;5020837;28;20677;-63
2023/03/03 08:14:47;;;;;;;17.50;9.85;;;;;;;6.45;84.20;94997.25;5015718;28;20261;-64
2023/03/03 08:17:21;;;;;;;11.10;9.13;;;;;;;6.56;84.22;95005.47;5025483;28;20681;-61
2023/03/03 08:19:49;;;;;;;12.27;9.85;;;;;;;6.64;83.74;95003.66;5021356;28;20206;-64
2023/03/03 08:22:18;;;;;;;11.27;9.70;;;;;;;6.65;82.74;95005.31;5021059;28;20215;-62
2023/03/03 08:24:45;;;;;;;10.05;9.13;;;;;;;6.74;83.36;95000.06;5021083;28;20255;-61
2023/03/03 08:27:12;;;;;;;11.00;9.23;;;;;;;6.75;82.67;94986.56;5024721;28;20214;-62
2023/03/03 08:29:39;;;;;;;14.98;10.40;;;;;;;6.70;83.12;94998.44;5019696;28;20218;-60
2023/03/03 08:32:05;;;;;;;11.57;9.85;;;;;;;6.72;83.83;94995.91;5015951;28;20585;-64
2023/03/03 08:34:34;;;;;;;12.55;10.43;;;;;;;6.64;83.93;94993.53;5021940;28;20216;-64
2023/03/03 08:37:00;;;;;;;13.55;9.60;;;;;;;6.61;83.41;94993.59;5025571;28;20225;-65
2023/03/03 08:39:27;;;;;;;13.23;10.73;;;;;;;6.55;83.72;94992.88;5021982;28;20202;-60
2023/03/03 08:41:54;;;;;;;12.00;10.15;;;;;;;6.67;85.58;94985.91;5021371;28;21836;-64
2023/03/03 08:44:20;;;;;;;14.60;11.23;;;;;;;6.81;85.00;94991.50;5018960;28;20543;-61
2023/03/03 08:46:47;;;;;;;13.88;8.88;;;;;;;6.71;83.20;94995.06;5023460;28;20667;-64
2023/03/03 08:49:14;;;;;;;11.27;9.77;;;;;;;6.57;83.51;94998.72;5019214;28;20207;-66
2023/03/03 08:51:42;;;;;;;16.27;11.10;;;;;;;6.58;84.06;94996.19;5029074;28;20387;-64
2023/03/03 08:54:09;;;;;;;12.48;9.13;;;;;;;6.44;84.07;94981.28;5028873;28;20202;-61
2023/03/03 08:56:36;;;;;;;12.18;10.05;;;;;;;6.59;83.94;94992.78;5028248;28;20543;-61
2023/03/03 08:59:03;;;;;;;15.15;10.57;;;;;;;6.80;84.15;94997.41;5027224;28;20210;-62
2023/03/03 09:01:30;;;;;;;10.95;9.63;;;;;;;6.97;82.79;94996.22;5026918;28;20292;-62
2023/03/03 09:03:56;;;;;;;11.55;10.30;;;;;;;7.04;82.44;94992.72;5028555;28;20221;-60
2023/03/03 09:06:23;;;;;;;16.27;12.07;;;;;;;7.14;82.50;94999.25;5028195;28;20639;-62
2023/03/03 09:08:51;;;;;;;13.25;10.25;;;;;;;7.15;81.04;94998.41;5027995;28;20210;-65
2023/03/03 09:11:25;;;;;;;14.18;10.65;;;;;;;7.17;81.24;94999.19;5028013;28;20206;-62
2023/03/03 09:13:54;;;;;;;15.77;10.63;;;;;;;6.96;80.52;94994.56;5027688;28;20206;-65
2023/03/03 09:16:21;;;;;;;12.10;9.20;;;;;;;6.96;80.69;94994.56;5026087;28;21077;-60
2023/03/03 09:18:48;;;;;;;14.25;11.05;;;;;;;7.15;81.15;94990.81;5026750;28;20216;-61
2023/03/03 09:21:22;;;;;;;13.57;9.95;;;;;;;7.33;80.29;94990.41;5027613;28;20206;-61
2023/03/03 09:23:54;;;;;;;13.77;9.77;;;;;;;7.47;80.39;94987.56;5027253;28;20206;-64
2023/03/03 09:26:31;;;;;;;15.80;11.27;;;;;;;7.46;79.55;94991.78;5028322;28;20226;-65
2023/03/03 09:29:09;;;;;;;9.00;8.10;;;;;;;7.45;78.99;94989.28;5027830;28;20206;-64
2023/03/03 09:31:39;;;;;;;10.65;8.73;;;;;;;7.20;80.77;94994.03;5024984;28;20267;-64
2023/03/03 09:34:19;;;;;;;9.30;8.20;;;;;;;7.27;81.12;94992.22;5025556;28;20828;-65
2023/03/03 09:36:46;;;;;;;12.07;8.85;;;;;;;7.27;79.76;94990.53;5025262;28;20224;-65
2023/03/03 09:39:18;;;;;;;9.73;8.23;;;;;;;7.45;81.33;94999.41;5026257;28;20677;-61
2023/03/03 09:42:20;;;;;;;13.50;9.52;;;;;;;7.83;80.00;94990.94;5025767;28;20234;-65
2023/03/03 09:45:02;;;;;;;8.02;7.25;;;;;;;7.81;79.44;94995.19;5025713;28;20764;-63
2023/03/03 09:47:44;;;;;;;9.18;8.15;;;;;;;7.83;78.10;94988.41;5027190;28;20303;-64
2023/03/03 09:50:25;;;;;;;14.50;8.88;;;;;;;7.95;79.24;94993.16;5026939;28;20291;-64
2023/03/03 09:53:02;;;;;;;10.80;8.68;;;;;;;8.08;78.75;94992.00;5026784;28;20221;-62
2023/03/03 09:55:49;;;;;;;12.02;9.30;;;;;;;8.20;78.13;94994.19;5024617;28;20202;-63
2023/03/03 09:58:36;;;;;;;11.73;8.90;;;;;;;8.32;77.51;94988.03;5024504;28;21732;-61
2023/03/03 10:01:23;;;;;;;11.10;9.13;;;;;;;8.37;77.19;94978.63;5025546;28;20684;-62
2023/03/03 10:04:15;;;;;;;9.85;8.85;;;;;;;8.56;76.47;94983.19;5024187;28;20205;-63
2023/03/03 10:06:48;;;;;;;11.68;9.00;;;;;;;8.60;75.91;94982.25;5026489;28;20210;-63
2023/03/03 10:09:43;;;;;;;10.13;8.82;;;;;;;8.47;74.85;94986.78;5025264;28;20202;-64
2023/03/03 10:12:21;;;;;;;10.85;9.45;;;;;;;8.35;75.39;94977.84;5027369;28;20267;-59
2023/03/03 10:15:10;;;;;;;12.80;8.48;;;;;;;8.36;76.57;94976.13;5023805;28;20206;-63
2023/03/03 10:17:48;;;;;;;11.65;9.50;;;;;;;8.44;76.48;94981.81;5023949;28;20222;-63
2023/03/03 10:20:30;;;;;;;11.52;9.07;;;;;;;8.50;75.24;94976.59;5021543;28;20214;-61
2023/03/03 10:23:08;;;;;;;11.23;8.93;;;;;;;8.64;76.48;94974.53;5022409;28;20314;-61
2023/03/03 10:25:41;;;;;;;10.32;9.23;;;;;;;8.93;75.75;94977.91;5026714;28;20671;-63
2023/03/03 10:28:24;;;;;;;10.93;8.77;;;;;;;9.07;73.98;94975.84;5024857;28;20198;-63
2023/03/03 10:30:58;;;;;;;9.52;8.43;;;;;;;9.11;73.85;94973.19;5024453;28;20787;-63
2023/03/03 10:33:33;;;;;;;25.38;16.92;;;;;;;9.10;74.07;94958.00;5026764;28;20543;-59
2023/03/03 10:36:29;;;;;;;14.82;11.68;;;;;;;9.32;73.60;94964.09;5024312;28;20293;-63
2023/03/03 10:39:10;;;;;;;20.30;13.40;;;;;;;9.31;73.76;94969.22;5018396;28;20202;-62
2023/03/03 10:41:54;;;;;;;14.45;11.00;;;;;;;9.29;74.51;94969.25;5025030;28;20206;-60
2023/03/03 10:44:35;;;;;;;11.77;10.30;;;;;;;9.28;75.36;94959.97;5021346;28;20263;-64
2023/03/03 10:47:23;;;;;;;12.15;9.60;;;;;;;9.24;76.18;94957.59;5020738;28;20206;-63
2023/03/03 10:50:02;;;;;;;11.43;10.20;;;;;;;9.18;76.15;94953.53;4998638;28;20291;-59
2023/03/03 10:52:38;;;;;;;16.50;12.88;;;;;;;9.23;75.68;94959.28;5023324;28;20221;-61
2023/03/03 10:55:25;;;;;;;18.30;12.43;;;;;;;9.33;75.62;94950.53;5023492;28;20210;-61
2023/03/03 10:58:07;;;;;;;19.67;14.20;;;;;;;9.37;75.52;94949.56;5021048;28;20283;-61
2023/03/03 11:00:43;;;;;;;11.40;9.60;;;;;;;9.45;74.85;94951.84;5024692;28;20623;-63
2023/03/03 11:03:31;;;;;;;11.30;10.23;;;;;;;9.33;74.61;94942.94;5024305;28;20237;-63
2023/03/03 11:06:00;;;;;;;33.58;21.38;;;;;;;9.31;75.04;94949.75;5022057;28;20255;-60
2023/03/03 11:08:34;;;;;;;40.38;24.00;;;;;;;9.37;74.90;94941.97;5021701;28;20206;-64
2023/03/03 11:11:10;;;;;;;37.85;23.95;;;;;;;9.34;75.79;94943.75;5021932;28;20202;-63
2023/03/03 11:13:45;;;;;;;27.73;20.77;;;;;;;9.40;75.48;94939.31;5023316;28;20206;-65
2023/03/03 11:16:42;;;;;;;25.80;17.27;;;;;;;9.44;74.40;94934.97;5020527;28;20205;-61
2023/03/03 11:19:29;;;;;;;20.58;14.35;;;;;;;9.46;74.65;94923.06;5019973;28;20213;-60
2023/03/03 11:22:03;;;;;;;18.63;12.68;;;;;;;9.64;74.12;94931.84;5022062;28;20202;-65
2023/03/03 11:24:41;;;;;;;19.23;13.13;;;;;;;9.56;74.61;94924.47;5023749;28;20211;-61
2023/03/03 11:27:32;;;;;;;15.40;11.40;;;;;;;9.69;74.46;94925.72;5019714;28;20202;-64
2023/03/03 11:30:33;;;;;;;17.38;12.73;;;;;;;9.85;74.45;94923.53;5025993;28;21216;-60
2023/03/03 11:33:06;;;;;;;15.13;11.43;;;;;;;9.98;73.25;94917.13;5023813;28;20591;-62
2023/03/03 11:35:40;;;;;;;17.70;12.68;;;;;;;10.02;72.82;94928.84;5022414;28;20206;-63
2023/03/03 11:38:24;;;;;;;15.45;12.45;;;;;;;10.11;72.69;94927.72;5018873;28;20225;-63
2023/03/03 11:40:55;;;;;;;13.52;11.10;;;;;;;10.07;72.94;94921.91;5023157;28;20257;-65
2023/03/03 11:43:28;;;;;;;15.30;12.35;;;;;;;10.00;73.14;94922.16;5020570;28;20213;-60
2023/03/03 11:45:59;;;;;;;14.55;12.80;;;;;;;10.00;73.00;94915.38;5022036;28;20206;-64
2023/03/03 11:48:36;;;;;;;17.88;12.45;;;;;;;10.06;73.21;94916.91;5023303;28;20260;-62
2023/03/03 11:51:06;;;;;;;14.23;12.82;;;;;;;10.13;73.33;94919.19;5022520;28;20238;-65